createdAt,value
2023-05-01T00:01:30.592Z,13.40
2023-05-01T00:03:58.013Z,13.40
2023-05-01T00:06:25.399Z,13.40
2023-05-01T00:08:52.459Z,13.40
2023-05-01T00:11:19.513Z,13.40
2023-05-01T00:13:46.533Z,13.40
2023-05-01T00:16:13.648Z,13.30
2023-05-01T00:18:40.718Z,13.30
2023-05-01T00:21:07.651Z,13.30
2023-05-01T00:23:34.660Z,13.30
2023-05-01T00:26:01.741Z,13.20
2023-05-01T00:28:29.199Z,13.20
2023-05-01T00:30:57.464Z,13.10
2023-05-01T00:33:24.469Z,13.10
2023-05-01T00:35:52.821Z,13.10
2023-05-01T00:38:19.880Z,13.00
2023-05-01T00:40:47.853Z,13.00
2023-05-01T00:43:14.964Z,12.90
2023-05-01T00:45:46.198Z,12.90
2023-05-01T00:48:13.583Z,12.80
2023-05-01T00:50:41.763Z,12.80
2023-05-01T00:53:08.812Z,12.80
2023-05-01T00:55:36.233Z,12.80
2023-05-01T00:58:03.829Z,12.70
2023-05-01T01:00:31.110Z,12.70
2023-05-01T01:02:58.339Z,12.70
2023-05-01T01:05:28.414Z,12.70
2023-05-01T01:08:21.971Z,12.70
2023-05-01T01:11:11.876Z,12.70
2023-05-01T01:13:57.343Z,12.70
2023-05-01T01:16:51.393Z,12.80
2023-05-01T01:19:22.191Z,12.70
2023-05-01T01:21:55.707Z,12.70
2023-05-01T01:24:51.275Z,12.60
2023-05-01T01:28:04.036Z,12.60
2023-05-01T01:31:12.193Z,12.50
2023-05-01T01:33:51.675Z,12.50
2023-05-01T01:36:47.475Z,12.40
2023-05-01T01:39:39.189Z,12.50
2023-05-01T01:42:12.375Z,12.50
2023-05-01T01:45:05.121Z,12.50
2023-05-01T01:47:34.365Z,12.50
2023-05-01T01:50:05.451Z,12.50
2023-05-01T01:52:33.875Z,12.50
2023-05-01T01:55:12.892Z,12.50
2023-05-01T01:57:43.902Z,12.50
2023-05-01T02:00:12.959Z,12.50
2023-05-01T02:02:41.375Z,12.50
2023-05-01T02:05:12.125Z,12.50
2023-05-01T02:07:41.054Z,12.40
2023-05-01T02:10:14.070Z,12.40
2023-05-01T02:12:46.443Z,12.40
2023-05-01T02:15:15.928Z,12.40
2023-05-01T02:17:42.975Z,12.40
2023-05-01T02:20:12.755Z,12.40
2023-05-01T02:22:44.248Z,12.40
2023-05-01T02:25:13.367Z,12.40
2023-05-01T02:28:14.595Z,12.40
2023-05-01T02:30:41.725Z,12.40
2023-05-01T02:33:09.164Z,12.40
2023-05-01T02:35:49.739Z,12.40
2023-05-01T02:38:17.261Z,12.40
2023-05-01T02:40:56.089Z,12.40
2023-05-01T02:43:24.134Z,12.30
2023-05-01T02:45:52.905Z,12.30
2023-05-01T02:48:24.954Z,12.30
2023-05-01T02:50:53.959Z,12.30
2023-05-01T02:53:22.363Z,12.30
2023-05-01T02:55:50.673Z,12.20
2023-05-01T02:58:19.416Z,12.20
2023-05-01T03:00:49.564Z,12.20
2023-05-01T03:03:17.561Z,12.20
2023-05-01T03:05:44.599Z,12.20
2023-05-01T03:08:11.638Z,12.20
2023-05-01T03:10:44.685Z,12.20
2023-05-01T03:13:11.988Z,12.20
2023-05-01T03:15:39.509Z,12.20
2023-05-01T03:18:07.111Z,12.10
2023-05-01T03:20:34.382Z,12.10
2023-05-01T03:23:01.696Z,12.10
2023-05-01T03:25:28.676Z,12.10
2023-05-01T03:27:55.625Z,12.10
2023-05-01T03:30:22.578Z,12.10
2023-05-01T03:32:49.793Z,12.10
2023-05-01T03:35:17.006Z,12.10
2023-05-01T03:37:44.094Z,12.10
2023-05-01T03:40:13.673Z,12.10
2023-05-01T03:42:40.650Z,12.10
2023-05-01T03:45:08.938Z,12.10
2023-05-01T03:47:35.915Z,12.10
2023-05-01T03:50:03.590Z,12.10
2023-05-01T03:52:30.596Z,12.10
2023-05-01T03:54:57.563Z,12.00
2023-05-01T03:57:24.901Z,12.00
2023-05-01T03:59:51.885Z,12.00
2023-05-01T04:02:19.048Z,12.10
2023-05-01T04:04:45.995Z,12.10
2023-05-01T04:07:13.859Z,12.10
2023-05-01T04:09:40.820Z,12.10
2023-05-01T04:12:07.760Z,12.10
2023-05-01T04:14:34.785Z,12.10
2023-05-01T04:17:02.003Z,12.20
2023-05-01T04:19:28.988Z,12.20
2023-05-01T04:21:55.926Z,12.20
2023-05-01T04:24:23.156Z,12.20
2023-05-01T04:26:50.474Z,12.20
2023-05-01T04:29:17.461Z,12.20
2023-05-01T04:31:44.786Z,12.30
2023-05-01T04:34:11.811Z,12.20
2023-05-01T04:36:38.858Z,12.20
2023-05-01T04:39:06.405Z,12.20
2023-05-01T04:41:33.408Z,12.20
2023-05-01T04:44:00.442Z,12.30
2023-05-01T04:46:27.485Z,12.30
2023-05-01T04:48:54.520Z,12.20
2023-05-01T04:51:21.542Z,12.20
2023-05-01T04:53:48.806Z,12.30
2023-05-01T04:56:15.810Z,12.30
2023-05-01T04:58:42.769Z,12.30
2023-05-01T05:01:10.306Z,12.30
2023-05-01T05:03:37.331Z,12.30
2023-05-01T05:06:04.892Z,12.40
2023-05-01T05:08:32.078Z,12.40
2023-05-01T05:11:00.071Z,12.40
2023-05-01T05:13:28.197Z,12.40
2023-05-01T05:15:55.396Z,12.50
2023-05-01T05:18:22.608Z,12.50
2023-05-01T05:20:49.780Z,12.50
2023-05-01T05:23:16.783Z,12.60
2023-05-01T05:25:43.754Z,12.60
2023-05-01T05:28:10.740Z,12.60
2023-05-01T05:30:37.669Z,12.60
2023-05-01T05:33:05.345Z,12.70
2023-05-01T05:35:32.365Z,12.70
2023-05-01T05:37:59.486Z,12.70
2023-05-01T05:40:26.466Z,12.70
2023-05-01T05:42:53.650Z,12.70
2023-05-01T05:45:20.872Z,12.80
2023-05-01T05:47:47.813Z,12.80
2023-05-01T05:50:15.177Z,12.80
2023-05-01T05:52:42.142Z,12.80
2023-05-01T05:55:09.583Z,12.80
2023-05-01T05:57:37.775Z,12.80
2023-05-01T06:00:05.766Z,12.70
2023-05-01T06:02:32.953Z,12.70
2023-05-01T06:05:00.014Z,12.70
2023-05-01T06:07:28.360Z,12.80
2023-05-01T06:09:55.943Z,12.80
2023-05-01T06:12:23.111Z,12.80
2023-05-01T06:14:50.624Z,12.90
2023-05-01T06:17:17.646Z,12.90
2023-05-01T06:19:44.580Z,13.00
2023-05-01T06:22:11.554Z,13.10
2023-05-01T06:24:39.804Z,13.20
2023-05-01T06:27:06.862Z,13.30
2023-05-01T06:29:33.800Z,13.40
2023-05-01T06:32:00.916Z,13.50
2023-05-01T06:34:27.846Z,13.70
2023-05-01T06:36:54.943Z,13.80
2023-05-01T06:39:21.939Z,13.90
2023-05-01T06:41:49.279Z,14.10
2023-05-01T06:44:16.933Z,14.10
2023-05-01T06:46:43.887Z,14.20
2023-05-01T06:49:11.120Z,14.30
2023-05-01T06:51:38.201Z,14.30
2023-05-01T06:54:05.296Z,14.40
2023-05-01T06:56:32.796Z,14.70
2023-05-01T06:58:59.656Z,15.00
2023-05-01T07:01:26.823Z,15.20
2023-05-01T07:03:53.809Z,15.30
2023-05-01T07:06:20.825Z,15.00
2023-05-01T07:08:49.176Z,14.80
2023-05-01T07:11:16.195Z,14.70
2023-05-01T07:13:43.126Z,14.60
2023-05-01T07:16:10.166Z,14.70
2023-05-01T07:18:37.915Z,15.00
2023-05-01T07:21:05.532Z,15.40
2023-05-01T07:23:32.509Z,15.60
2023-05-01T07:25:59.493Z,15.80
2023-05-01T07:28:26.418Z,15.70
2023-05-01T07:30:53.356Z,15.40
2023-05-01T07:33:20.441Z,15.20
2023-05-01T07:35:47.714Z,15.10
2023-05-01T07:38:16.797Z,15.00
2023-05-01T07:40:43.909Z,15.00
2023-05-01T07:43:11.807Z,15.10
2023-05-01T07:45:40.014Z,15.30
2023-05-01T07:48:07.230Z,15.40
2023-05-01T07:50:34.215Z,15.40
2023-05-01T07:53:01.179Z,15.40
2023-05-01T07:55:28.367Z,15.50
2023-05-01T07:57:55.350Z,15.50
2023-05-01T08:00:22.419Z,15.50
2023-05-01T08:02:49.462Z,15.40
2023-05-01T08:05:16.430Z,15.40
2023-05-01T08:07:43.415Z,15.30
2023-05-01T08:10:10.714Z,15.20
2023-05-01T08:12:37.712Z,15.20
2023-05-01T08:15:05.431Z,15.10
2023-05-01T08:17:32.415Z,15.00
2023-05-01T08:20:00.704Z,14.90
2023-05-01T08:22:27.794Z,15.00
2023-05-01T08:24:55.338Z,14.80
2023-05-01T08:27:22.486Z,14.80
2023-05-01T08:29:49.755Z,14.80
2023-05-01T08:32:18.700Z,14.80
2023-05-01T08:34:46.442Z,14.80
2023-05-01T08:37:13.415Z,14.90
2023-05-01T08:39:40.433Z,15.00
2023-05-01T08:42:08.303Z,15.10
2023-05-01T08:44:39.892Z,15.10
2023-05-01T08:47:17.289Z,15.20
2023-05-01T08:49:46.112Z,15.30
2023-05-01T08:52:15.427Z,15.40
2023-05-01T08:54:48.499Z,15.60
2023-05-01T08:57:16.055Z,15.60
2023-05-01T08:59:45.196Z,15.80
2023-05-01T09:02:12.394Z,15.80
2023-05-01T09:04:41.160Z,15.90
2023-05-01T09:07:09.499Z,16.10
2023-05-01T09:09:37.159Z,16.30
2023-05-01T09:12:27.131Z,16.40
2023-05-01T09:14:56.612Z,16.50
2023-05-01T09:17:25.078Z,16.60
2023-05-01T09:19:52.627Z,16.50
2023-05-01T09:22:20.500Z,16.30
2023-05-01T09:24:47.458Z,16.30
2023-05-01T09:27:15.300Z,16.20
2023-05-01T09:29:45.962Z,16.10
2023-05-01T09:32:28.441Z,15.90
2023-05-01T09:35:09.753Z,15.90
2023-05-01T09:37:36.831Z,15.80
2023-05-01T09:40:11.952Z,15.70
2023-05-01T09:42:53.078Z,15.70
2023-05-01T09:45:20.724Z,15.70
2023-05-01T09:47:48.665Z,15.90
2023-05-01T09:50:34.516Z,15.90
2023-05-01T09:53:04.816Z,16.10
2023-05-01T09:55:32.901Z,16.20
2023-05-01T09:57:59.991Z,16.40
2023-05-01T10:00:27.636Z,16.50
2023-05-01T10:02:56.113Z,16.70
2023-05-01T10:05:23.969Z,16.60
2023-05-01T10:08:02.378Z,16.70
2023-05-01T10:10:29.756Z,16.90
2023-05-01T10:12:57.002Z,16.80
2023-05-01T10:15:36.506Z,16.90
2023-05-01T10:18:05.174Z,17.10
2023-05-01T10:20:32.748Z,17.40
2023-05-01T10:23:02.646Z,17.70
2023-05-01T10:25:30.371Z,18.00
2023-05-01T10:27:57.912Z,18.10
2023-05-01T10:30:26.719Z,18.40
2023-05-01T10:32:53.751Z,18.80
2023-05-01T10:35:27.305Z,19.00
2023-05-01T10:38:07.157Z,19.20
2023-05-01T10:40:40.317Z,19.20
2023-05-01T10:43:26.292Z,19.30
2023-05-01T10:46:15.498Z,19.30
2023-05-01T10:48:42.510Z,19.20
2023-05-01T10:51:21.385Z,18.90
2023-05-01T10:54:10.532Z,19.20
2023-05-01T10:56:37.427Z,19.50
2023-05-01T10:59:04.993Z,19.80
2023-05-01T11:01:36.592Z,20.00
2023-05-01T11:04:11.377Z,20.40
2023-05-01T11:06:38.451Z,20.40
2023-05-01T11:09:43.616Z,20.70
2023-05-01T11:12:16.886Z,20.30
2023-05-01T11:14:57.467Z,19.80
2023-05-01T11:17:43.082Z,19.70
2023-05-01T11:20:11.106Z,20.00
2023-05-01T11:22:47.266Z,20.00
2023-05-01T11:25:23.278Z,19.70
2023-05-01T11:27:56.296Z,19.60
2023-05-01T11:30:23.490Z,19.30
2023-05-01T11:32:52.006Z,19.00
2023-05-01T11:35:24.397Z,18.80
2023-05-01T11:37:51.762Z,18.60
2023-05-01T11:40:27.091Z,18.60
2023-05-01T11:43:05.978Z,19.10
2023-05-01T11:45:34.871Z,19.70
2023-05-01T11:48:05.540Z,19.90
2023-05-01T11:50:39.789Z,19.90
2023-05-01T11:53:17.737Z,19.50
2023-05-01T11:55:45.678Z,19.30
2023-05-01T11:58:13.476Z,19.20
2023-05-01T12:00:43.655Z,19.50
2023-05-01T12:03:14.076Z,20.10
2023-05-01T12:05:45.580Z,20.20
2023-05-01T12:08:22.248Z,20.00
2023-05-01T12:10:58.035Z,19.60
2023-05-01T12:13:27.035Z,20.00
2023-05-01T12:15:56.369Z,19.90
2023-05-01T12:18:23.711Z,19.70
2023-05-01T12:20:54.374Z,19.50
2023-05-01T12:23:35.997Z,19.60
2023-05-01T12:26:16.419Z,20.20
2023-05-01T12:29:05.583Z,20.40
2023-05-01T12:31:33.796Z,20.10
2023-05-01T12:34:06.625Z,20.00
2023-05-01T12:36:36.581Z,19.90
2023-05-01T12:39:14.629Z,19.50
2023-05-01T12:41:43.488Z,19.20
2023-05-01T12:44:27.401Z,19.10
2023-05-01T12:47:07.332Z,19.00
2023-05-01T12:49:37.102Z,18.90
2023-05-01T12:52:08.109Z,18.70
2023-05-01T12:54:38.121Z,18.70
2023-05-01T12:57:10.964Z,19.00
2023-05-01T12:59:40.017Z,19.40
2023-05-01T13:02:15.037Z,19.50
2023-05-01T13:04:43.870Z,19.10
2023-05-01T13:07:19.831Z,18.90
2023-05-01T13:09:58.675Z,18.80
2023-05-01T13:12:28.055Z,18.60
2023-05-01T13:14:55.353Z,18.70
2023-05-01T13:17:27.929Z,18.90
2023-05-01T13:19:57.064Z,18.70
2023-05-01T13:22:37.493Z,18.60
2023-05-01T13:25:20.607Z,18.60
2023-05-01T13:27:53.302Z,18.70
2023-05-01T13:30:30.892Z,18.90
2023-05-01T13:32:57.933Z,19.10
2023-05-01T13:35:26.939Z,19.10
2023-05-01T13:37:54.532Z,18.90
2023-05-01T13:40:22.246Z,18.90
2023-05-01T13:42:53.021Z,19.00
2023-05-01T13:45:23.686Z,19.30
2023-05-01T13:47:52.081Z,19.50
2023-05-01T13:50:19.342Z,19.50
2023-05-01T13:52:46.336Z,19.40
2023-05-01T13:55:14.769Z,19.70
2023-05-01T13:57:43.208Z,19.70
2023-05-01T14:00:17.812Z,19.90
2023-05-01T14:02:48.725Z,19.90
2023-05-01T14:05:16.750Z,20.20
2023-05-01T14:08:02.466Z,20.40
2023-05-01T14:10:29.773Z,20.20
2023-05-01T14:12:59.830Z,20.00
2023-05-01T14:15:28.777Z,20.10
2023-05-01T14:17:55.868Z,20.40
2023-05-01T14:20:25.816Z,20.70
2023-05-01T14:22:53.574Z,21.00
2023-05-01T14:25:34.074Z,20.90
2023-05-01T14:28:08.126Z,21.00
2023-05-01T14:30:38.666Z,20.30
2023-05-01T14:33:15.662Z,19.80
2023-05-01T14:36:02.934Z,19.60
2023-05-01T14:38:38.622Z,19.80
2023-05-01T14:41:06.041Z,19.80
2023-05-01T14:43:34.263Z,19.80
2023-05-01T14:46:01.375Z,19.90
2023-05-01T14:48:35.996Z,19.90
2023-05-01T14:51:06.469Z,19.80
2023-05-01T14:53:33.626Z,19.40
2023-05-01T14:56:00.731Z,19.30
2023-05-01T14:58:27.722Z,19.10
2023-05-01T15:00:55.167Z,19.20
2023-05-01T15:03:22.283Z,19.30
2023-05-01T15:05:49.371Z,19.30
2023-05-01T15:08:16.749Z,19.30
2023-05-01T15:10:44.998Z,19.10
2023-05-01T15:13:12.099Z,18.80
2023-05-01T15:15:39.113Z,18.70
2023-05-01T15:18:06.871Z,18.60
2023-05-01T15:20:33.857Z,18.70
2023-05-01T15:23:01.004Z,18.60
2023-05-01T15:25:28.220Z,18.70
2023-05-01T15:27:55.687Z,18.50
2023-05-01T15:30:22.943Z,18.20
2023-05-01T15:32:50.127Z,17.90
2023-05-01T15:35:17.794Z,17.90
2023-05-01T15:37:44.781Z,18.20
2023-05-01T15:40:11.995Z,18.50
2023-05-01T15:42:39.833Z,18.60
2023-05-01T15:45:08.065Z,18.50
2023-05-01T15:47:35.071Z,18.40
2023-05-01T15:50:02.348Z,18.30
2023-05-01T15:52:29.576Z,18.20
2023-05-01T15:54:56.576Z,18.20
2023-05-01T15:57:23.643Z,18.00
2023-05-01T15:59:53.990Z,17.90
2023-05-01T16:02:21.637Z,17.90
2023-05-01T16:04:48.900Z,17.80
2023-05-01T16:07:16.032Z,17.90
2023-05-01T16:09:43.035Z,17.80
2023-05-01T16:12:10.063Z,17.70
2023-05-01T16:14:41.181Z,17.70
2023-05-01T16:17:08.388Z,17.70
2023-05-01T16:19:37.031Z,17.80
2023-05-01T16:22:06.763Z,17.60
2023-05-01T16:24:34.763Z,17.50
2023-05-01T16:27:02.211Z,17.40
2023-05-01T16:29:32.490Z,17.30
2023-05-01T16:31:59.889Z,17.30
2023-05-01T16:34:27.590Z,17.20
2023-05-01T16:36:56.427Z,17.20
2023-05-01T16:39:23.635Z,17.20
2023-05-01T16:41:56.732Z,17.20
2023-05-01T16:44:23.711Z,17.00
2023-05-01T16:46:56.461Z,17.00
2023-05-01T16:49:27.285Z,17.00
2023-05-01T16:51:57.057Z,17.20
2023-05-01T16:54:26.922Z,17.30
2023-05-01T16:56:53.945Z,17.30
2023-05-01T16:59:20.932Z,17.40
2023-05-01T17:01:47.928Z,17.30
2023-05-01T17:04:15.288Z,17.10
2023-05-01T17:06:42.363Z,16.90
2023-05-01T17:09:09.357Z,16.90
2023-05-01T17:11:36.371Z,17.00
2023-05-01T17:14:03.702Z,17.00
2023-05-01T17:16:32.413Z,17.00
2023-05-01T17:18:59.432Z,16.90
2023-05-01T17:21:28.295Z,16.90
2023-05-01T17:23:55.259Z,16.80
2023-05-01T17:26:22.912Z,16.70
2023-05-01T17:28:50.594Z,16.50
2023-05-01T17:31:18.774Z,16.40
2023-05-01T17:33:47.466Z,16.30
2023-05-01T17:36:14.476Z,16.20
2023-05-01T17:38:41.855Z,16.20
2023-05-01T17:41:08.801Z,16.10
2023-05-01T17:43:35.791Z,16.10
2023-05-01T17:46:04.882Z,16.00
2023-05-01T17:48:31.982Z,16.00
2023-05-01T17:50:59.094Z,15.90
2023-05-01T17:53:26.118Z,15.90
2023-05-01T17:55:53.212Z,15.80
2023-05-01T17:58:20.894Z,15.80
2023-05-01T18:00:48.193Z,15.70
2023-05-01T18:03:15.241Z,15.60
2023-05-01T18:05:42.423Z,15.60
2023-05-01T18:08:09.374Z,15.50
2023-05-01T18:10:36.345Z,15.40
2023-05-01T18:13:03.341Z,15.40
2023-05-01T18:15:30.342Z,15.40
2023-05-01T18:17:57.356Z,15.30
2023-05-01T18:20:24.648Z,15.30
2023-05-01T18:22:54.222Z,15.20
2023-05-01T18:25:21.248Z,15.00
2023-05-01T18:27:49.153Z,15.00
2023-05-01T18:30:17.005Z,14.90
2023-05-01T18:32:47.507Z,14.90
2023-05-01T18:35:17.184Z,14.80
2023-05-01T18:37:44.341Z,14.80
2023-05-01T18:40:12.648Z,14.80
2023-05-01T18:42:43.119Z,14.70
2023-05-01T18:45:10.542Z,14.60
2023-05-01T18:47:37.540Z,14.60
2023-05-01T18:50:06.283Z,14.50
2023-05-01T18:52:33.318Z,14.40
2023-05-01T18:55:00.356Z,14.30
2023-05-01T18:57:28.914Z,14.20
2023-05-01T18:59:56.037Z,14.20
2023-05-01T19:02:23.237Z,14.10
2023-05-01T19:04:57.353Z,14.00
2023-05-01T19:07:26.554Z,14.00
2023-05-01T19:09:53.693Z,13.90
2023-05-01T19:12:20.728Z,13.80
2023-05-01T19:14:47.763Z,13.80
2023-05-01T19:17:14.844Z,13.70
2023-05-01T19:19:41.855Z,13.60
2023-05-01T19:22:08.911Z,13.60
2023-05-01T19:24:35.894Z,13.50
2023-05-01T19:27:03.363Z,13.50
2023-05-01T19:29:33.474Z,13.40
2023-05-01T19:32:00.661Z,13.30
2023-05-01T19:34:28.449Z,13.30
2023-05-01T19:36:57.092Z,13.20
2023-05-01T19:39:24.344Z,13.20
2023-05-01T19:41:52.023Z,13.10
2023-05-01T19:44:19.136Z,13.10
2023-05-01T19:46:46.146Z,13.00
2023-05-01T19:49:13.129Z,13.00
2023-05-01T19:51:40.136Z,12.90
2023-05-01T19:54:07.074Z,12.80
2023-05-01T19:56:34.699Z,12.80
2023-05-01T19:59:01.641Z,12.80
2023-05-01T20:01:31.341Z,12.70
2023-05-01T20:03:58.484Z,12.70
2023-05-01T20:06:25.607Z,12.70
2023-05-01T20:08:52.715Z,12.60
2023-05-01T20:11:19.715Z,12.50
2023-05-01T20:13:46.992Z,12.40
2023-05-01T20:16:13.972Z,12.40
2023-05-01T20:18:40.979Z,12.30
2023-05-01T20:21:07.951Z,12.30
2023-05-01T20:23:34.996Z,12.20
2023-05-01T20:26:02.041Z,12.10
2023-05-01T20:28:29.296Z,12.10
2023-05-01T20:30:56.983Z,12.00
2023-05-01T20:33:24.642Z,11.90
2023-05-01T20:35:51.736Z,11.90
2023-05-01T20:38:18.693Z,11.90
2023-05-01T20:40:45.621Z,11.80
2023-05-01T20:43:12.975Z,11.80
2023-05-01T20:45:40.187Z,11.70
2023-05-01T20:48:07.483Z,11.60
2023-05-01T20:50:35.495Z,11.60
2023-05-01T20:53:02.529Z,11.60
2023-05-01T20:55:30.018Z,11.60
2023-05-01T20:57:57.012Z,11.50
2023-05-01T21:00:23.985Z,11.40
2023-05-01T21:02:52.773Z,11.30
2023-05-01T21:05:20.108Z,11.30
2023-05-01T21:07:48.017Z,11.20
2023-05-01T21:10:16.617Z,11.10
2023-05-01T21:12:43.881Z,11.00
2023-05-01T21:15:11.882Z,10.90
2023-05-01T21:17:40.773Z,10.90
2023-05-01T21:20:17.189Z,10.80
2023-05-01T21:22:45.713Z,10.90
2023-05-01T21:25:19.814Z,10.90
2023-05-01T21:27:46.754Z,10.80
2023-05-01T21:30:18.204Z,10.70
2023-05-01T21:32:45.394Z,10.70
2023-05-01T21:35:16.607Z,10.60
2023-05-01T21:37:45.099Z,10.60
2023-05-01T21:40:14.592Z,10.50
2023-05-01T21:42:41.755Z,10.50
2023-05-01T21:45:14.364Z,10.50
2023-05-01T21:47:47.875Z,10.50
2023-05-01T21:50:18.083Z,10.40
2023-05-01T21:52:48.828Z,10.40
2023-05-01T21:55:22.263Z,10.40
2023-05-01T21:57:53.357Z,10.40
2023-05-01T22:00:21.476Z,10.40
2023-05-01T22:02:50.320Z,10.40
2023-05-01T22:05:22.557Z,10.30
2023-05-01T22:07:52.196Z,10.30
2023-05-01T22:10:20.242Z,10.30
2023-05-01T22:12:49.241Z,10.30
2023-05-01T22:15:16.828Z,10.20
2023-05-01T22:17:45.049Z,10.20
2023-05-01T22:20:12.471Z,10.20
2023-05-01T22:22:41.500Z,10.20
2023-05-01T22:25:10.158Z,10.10
2023-05-01T22:27:37.784Z,10.10
2023-05-01T22:30:06.245Z,10.00
2023-05-01T22:32:33.776Z,10.00
2023-05-01T22:35:01.009Z,10.00
2023-05-01T22:37:28.041Z,10.00
2023-05-01T22:39:55.070Z,10.00
2023-05-01T22:42:23.060Z,10.00
2023-05-01T22:44:50.130Z,10.00
2023-05-01T22:47:17.529Z,10.00
2023-05-01T22:49:44.536Z,10.00
2023-05-01T22:52:11.525Z,9.90
2023-05-01T22:54:38.449Z,9.90
2023-05-01T22:57:05.434Z,9.80
2023-05-01T22:59:32.447Z,9.80
2023-05-01T23:02:04.006Z,9.70
2023-05-01T23:04:32.369Z,9.70
2023-05-01T23:06:59.435Z,9.60
2023-05-01T23:09:26.531Z,9.60
2023-05-01T23:11:53.631Z,9.70
2023-05-01T23:14:20.754Z,9.70
2023-05-01T23:16:47.934Z,9.70
2023-05-01T23:19:24.092Z,9.70
2023-05-01T23:22:09.807Z,9.70
2023-05-01T23:24:49.281Z,9.70
2023-05-01T23:27:18.132Z,9.70
2023-05-01T23:29:58.702Z,9.80
2023-05-01T23:32:29.468Z,9.90
2023-05-01T23:35:14.097Z,9.90
2023-05-01T23:37:41.836Z,10.00
2023-05-01T23:40:09.597Z,10.00
2023-05-01T23:42:38.253Z,10.10
2023-05-01T23:45:07.273Z,10.10
2023-05-01T23:47:34.444Z,10.20
2023-05-01T23:50:02.333Z,10.30
2023-05-01T23:52:29.629Z,10.30
2023-05-01T23:54:56.589Z,10.30
2023-05-01T23:57:23.615Z,10.40
2023-05-01T23:59:50.565Z,10.40
